Dalhart, Texas
Current Conditions -  °F | °C
As of 7:53 PM on Monday 20 Oct 2014 (Local Time) from KDHT Reporting Station
Clear Clear  
Wind Chill: 63°   Ceiling: Unl
Heat Index: 63°   Visibility: 10mi
Dew Point: 48°   Wind: 8mph
Humidity: 58%   Direction: 50°NE
Pressure: 30.12"   Gusts: NA
Location:  36.06°N, 102.52°W
Report Text: KDHT 210053Z AUTO 05007KT 10SM CLR 17/09 A3012 RMK AO2 SLP170 T01720089
Loading
Personal Weather Stations






























Interactive Weather Map New forecast layout! Learn more

10-Day Weather Forecast

Advertisements
Track Severe Weather on mobile